Time;durP1;ratioP1;P1;durP2;ratioP2;P2;SDS_P1;SDS_P2;PMS_P1;PMS_P2;Temp;Humidity;BMP_temperature;BMP_pressure;BME280_temperature;BME280_humidity;BME280_pressure;Samples;Min_cycle;Max_cycle;Signal;HPM_P1;HPM_P2
2024/02/02 00:01:30;;;;;;;31.20;20.02;;;;;;;7.43;100.00;101818.38;4969095;28;20027;-83
2024/02/02 00:03:57;;;;;;;33.55;22.80;;;;;;;7.48;100.00;101815.47;4949188;28;20645;-83
2024/02/02 00:06:22;;;;;;;29.60;20.00;;;;;;;7.54;100.00;101823.00;4939815;28;20050;-83
2024/02/02 00:08:48;;;;;;;26.33;18.63;;;;;;;7.58;100.00;101819.25;4955715;28;20104;-83
2024/02/02 00:11:14;;;;;;;22.30;15.38;;;;;;;7.60;100.00;101822.63;4952981;28;20038;-83
2024/02/02 00:13:41;;;;;;;15.50;11.52;;;;;;;7.62;100.00;101810.25;4974652;28;20447;-83
2024/02/02 00:16:06;;;;;;;12.68;10.48;;;;;;;7.68;100.00;101806.38;4956898;28;20054;-84
2024/02/02 00:18:32;;;;;;;14.80;11.80;;;;;;;7.77;100.00;101808.47;4970667;28;20045;-82
2024/02/02 00:21:10;;;;;;;11.45;9.00;;;;;;;7.93;100.00;101812.84;4971696;28;20045;-85
2024/02/02 00:23:36;;;;;;;13.35;9.85;;;;;;;7.94;100.00;101807.47;4957537;28;21339;-83
2024/02/02 00:26:03;;;;;;;11.90;7.43;;;;;;;8.01;100.00;101812.38;4956764;28;20034;-83
2024/02/02 00:28:29;;;;;;;8.82;7.43;;;;;;;8.09;100.00;101820.63;4940597;28;20035;-83
2024/02/02 00:31:07;;;;;;;8.68;6.50;;;;;;;8.10;100.00;101813.56;4957618;28;20097;-84
2024/02/02 00:33:33;;;;;;;8.77;6.75;;;;;;;8.15;100.00;101817.63;4930922;28;20513;-83
2024/02/02 00:35:59;;;;;;;6.72;5.28;;;;;;;8.15;100.00;101812.38;4937158;28;20122;-84
2024/02/02 00:38:40;;;;;;;6.63;5.72;;;;;;;8.22;100.00;101804.09;4939211;28;20207;-84
2024/02/02 00:41:06;;;;;;;8.70;5.50;;;;;;;8.19;100.00;101800.69;4958735;28;20066;-84
2024/02/02 00:47:51;;;;;;;8.82;5.43;;;;;;;8.29;100.00;101797.47;4897542;29;20168;-83
2024/02/02 00:50:17;;;;;;;6.75;5.20;;;;;;;8.30;100.00;101786.84;4892918;29;21452;-84
2024/02/02 00:52:43;;;;;;;5.40;4.85;;;;;;;8.35;100.00;101789.19;4932972;28;20043;-84
2024/02/02 00:55:12;;;;;;;6.65;5.22;;;;;;;8.38;100.00;101780.25;4952476;28;20043;-84
2024/02/02 00:57:38;;;;;;;10.18;6.63;;;;;;;8.38;100.00;101773.19;4960154;28;20089;-85
2024/02/02 01:00:19;;;;;;;8.10;5.35;;;;;;;8.47;100.00;101777.06;4944047;28;20033;-88
2024/02/02 01:02:48;;;;;;;9.18;6.25;;;;;;;8.41;100.00;101773.00;4942731;28;20133;-83
2024/02/02 01:05:14;;;;;;;8.30;5.90;;;;;;;8.43;100.00;101772.91;4941838;28;20102;-85
2024/02/02 01:07:40;;;;;;;8.65;5.22;;;;;;;8.44;100.00;101756.16;4962471;28;20057;-84
2024/02/02 01:10:16;;;;;;;7.57;5.45;;;;;;;8.47;100.00;101755.97;4956068;28;20039;-86
2024/02/02 01:12:42;;;;;;;;;;;;;;;8.41;100.00;101741.38;4935896;28;20035;-86
2024/02/02 01:15:11;;;;;;;8.07;4.28;;;;;;;8.44;100.00;101749.09;4927913;28;19918;-84
2024/02/02 01:17:37;;;;;;;5.35;4.43;;;;;;;8.48;100.00;101738.34;4937111;29;20043;-88
2024/02/02 01:20:03;;;;;;;7.88;4.85;;;;;;;8.53;100.00;101733.63;4941462;28;20043;-86
2024/02/02 01:25:31;;;;;;;6.97;3.88;;;;;;;8.58;100.00;101738.66;4970057;28;20578;-85
2024/02/02 01:27:57;;;;;;;8.40;4.45;;;;;;;8.55;100.00;101722.06;4969936;28;20565;-84
2024/02/02 01:30:36;;;;;;;8.38;4.80;;;;;;;8.62;100.00;101730.44;4948833;28;20038;-87
2024/02/02 01:33:04;;;;;;;6.25;4.93;;;;;;;8.61;100.00;101730.53;4961564;28;20045;-85
2024/02/02 01:35:41;;;;;;;6.68;5.03;;;;;;;8.51;100.00;101723.19;4921608;28;20485;-85
2024/02/02 01:38:10;;;;;;;9.05;6.05;;;;;;;8.52;100.00;101724.88;4957557;28;20042;-84
2024/02/02 01:40:36;;;;;;;8.50;5.80;;;;;;;8.54;100.00;101723.03;4939372;28;20041;-93
2024/02/02 01:43:04;;;;;;;10.95;6.90;;;;;;;8.51;100.00;101723.19;4957047;28;20500;-93
2024/02/02 01:45:47;;;;;;;23.33;14.77;;;;;;;8.59;100.00;101717.47;4945611;28;20023;-93
2024/02/02 01:48:16;;;;;;;13.82;9.15;;;;;;;8.53;100.00;101709.91;4943887;29;20054;-93
2024/02/02 01:50:42;;;;;;;9.32;5.47;;;;;;;8.61;100.00;101720.84;4952765;28;20515;-92
2024/02/02 01:53:09;;;;;;;6.85;4.70;;;;;;;8.73;100.00;101721.81;4940468;28;20551;-92
2024/02/02 01:55:36;;;;;;;7.93;4.68;;;;;;;8.78;100.00;101724.16;4954703;28;20050;-91
2024/02/02 01:58:05;;;;;;;4.47;3.25;;;;;;;8.84;100.00;101720.28;4943255;28;20033;-93
2024/02/02 02:00:31;;;;;;;4.28;2.20;;;;;;;8.90;100.00;101727.78;4942962;28;20038;-92
2024/02/02 02:02:57;;;;;;;5.93;2.85;;;;;;;8.96;100.00;101726.53;4927041;28;20369;-93
2024/02/02 02:05:28;;;;;;;1.75;1.55;;;;;;;8.97;100.00;101718.50;4926142;28;20042;-93
2024/02/02 02:07:54;;;;;;;3.25;2.55;;;;;;;9.01;100.00;101717.38;4925683;28;20038;-92
2024/02/02 02:10:21;;;;;;;1.88;1.55;;;;;;;9.06;100.00;101717.91;4925028;28;20026;-92
2024/02/02 02:12:49;;;;;;;1.58;1.40;;;;;;;9.06;100.00;101711.81;4941742;28;20049;-93
2024/02/02 02:15:15;;;;;;;1.30;1.15;;;;;;;9.05;100.00;101708.31;4925381;28;20038;-92
2024/02/02 02:17:41;;;;;;;1.50;1.30;;;;;;;9.06;100.00;101715.25;4940355;28;20130;-92
2024/02/02 02:20:11;;;;;;;1.50;1.10;;;;;;;9.09;100.00;101708.09;4925628;28;20057;-93
2024/02/02 02:22:37;;;;;;;1.52;1.10;;;;;;;9.09;100.00;101706.31;4925998;28;20041;-92
2024/02/02 02:25:04;;;;;;;0.82;0.80;;;;;;;9.15;100.00;101712.97;4923687;28;20098;-93
2024/02/02 02:27:31;;;;;;;1.77;0.90;;;;;;;9.21;100.00;101714.31;4926142;28;20031;-92
2024/02/02 02:30:01;;;;;;;1.00;0.80;;;;;;;9.21;100.00;101706.41;4957591;28;20041;-94
2024/02/02 02:32:26;;;;;;;0.60;0.60;;;;;;;9.24;100.00;101711.47;4954314;28;20043;-92
2024/02/02 02:34:53;;;;;;;0.90;0.45;;;;;;;9.24;100.00;101714.13;4931691;29;20843;-90
2024/02/02 02:37:19;;;;;;;0.40;0.40;;;;;;;9.28;100.00;101715.63;4939979;28;20075;-92
2024/02/02 02:39:45;;;;;;;0.55;0.45;;;;;;;9.33;100.00;101708.25;4941818;28;20177;-92
2024/02/02 02:42:13;;;;;;;0.73;0.40;;;;;;;9.34;100.00;101709.06;4951809;28;20046;-92
2024/02/02 02:44:39;;;;;;;0.52;0.40;;;;;;;9.35;100.00;101702.84;4925992;28;20046;-92
2024/02/02 02:47:05;;;;;;;0.40;0.40;;;;;;;9.47;100.00;101714.34;4941398;28;20031;-92
2024/02/02 02:49:31;;;;;;;1.50;0.47;;;;;;;9.45;100.00;101701.25;4926068;28;20027;-92
2024/02/02 02:52:00;;;;;;;1.77;0.40;;;;;;;9.49;100.00;101704.53;4943298;28;20038;-93
2024/02/02 02:54:28;;;;;;;0.30;0.30;;;;;;;9.54;100.00;101705.91;4924669;28;20061;-92
2024/02/02 02:56:54;;;;;;;0.95;0.32;;;;;;;9.57;100.00;101706.66;4938818;28;20039;-93
2024/02/02 02:59:20;;;;;;;1.83;0.30;;;;;;;9.55;100.00;101706.75;4921007;29;20453;-92
2024/02/02 03:01:46;;;;;;;0.75;0.20;;;;;;;9.56;100.00;101700.50;4930626;28;20088;-92
2024/02/02 03:04:19;;;;;;;0.55;0.20;;;;;;;9.61;100.00;101708.13;4947338;28;20078;-93
2024/02/02 03:06:45;;;;;;;0.50;0.20;;;;;;;9.61;100.00;101705.47;4916924;28;20034;-93
2024/02/02 03:09:13;;;;;;;0.30;0.30;;;;;;;9.61;100.00;101694.91;4935236;28;20082;-88
2024/02/02 03:11:39;;;;;;;0.20;0.20;;;;;;;9.63;100.00;101695.66;4942649;28;20038;-92
2024/02/02 03:14:05;;;;;;;0.63;0.17;;;;;;;9.66;100.00;101695.44;4943968;28;20105;-94
2024/02/02 03:16:32;;;;;;;1.08;0.10;;;;;;;9.67;100.00;101695.34;4942725;28;20030;-93
2024/02/02 03:19:01;;;;;;;1.40;0.30;;;;;;;9.72;100.00;101694.16;4955657;28;20036;-93
2024/02/02 03:21:27;;;;;;;0.30;0.20;;;;;;;9.73;100.00;101678.22;4947045;28;20046;-94
2024/02/02 03:23:53;;;;;;;0.50;0.22;;;;;;;9.82;100.00;101687.28;4927197;28;20043;-93
2024/02/02 03:26:19;;;;;;;0.82;0.13;;;;;;;9.84;100.00;101679.25;4966441;28;20045;-92
2024/02/02 03:28:45;;;;;;;0.20;0.20;;;;;;;9.91;100.00;101680.50;4928991;28;20046;-93
2024/02/02 03:31:19;;;;;;;2.40;0.75;;;;;;;9.99;100.00;101672.88;4943725;28;20512;-94
2024/02/02 03:33:45;;;;;;;1.27;0.30;;;;;;;9.92;100.00;101659.25;4924194;29;20062;-95
2024/02/02 03:36:11;;;;;;;0.20;0.20;;;;;;;9.97;100.00;101658.94;4940105;28;20089;-93
2024/02/02 03:38:37;;;;;;;0.22;0.10;;;;;;;10.00;100.00;101663.16;4928213;28;20031;-93
2024/02/02 03:41:03;;;;;;;0.20;0.20;;;;;;;9.95;100.00;101647.66;4923919;28;20050;-93
2024/02/02 03:43:34;;;;;;;0.38;0.20;;;;;;;9.99;100.00;101651.75;4939234;28;20035;-93
2024/02/02 03:46:00;;;;;;;1.50;0.17;;;;;;;9.95;100.00;101647.66;4924466;28;20063;-95
2024/02/02 03:48:26;;;;;;;0.93;0.10;;;;;;;9.97;100.00;101645.72;4928234;28;20035;-91
2024/02/02 03:50:52;;;;;;;0.70;0.13;;;;;;;9.95;100.00;101642.38;4943762;28;20038;-94
2024/02/02 03:53:18;;;;;;;0.40;0.10;;;;;;;9.99;100.00;101643.84;4947124;28;20065;-94
2024/02/02 03:55:44;;;;;;;0.10;0.10;;;;;;;10.00;100.00;101644.69;4947403;28;20042;-89
2024/02/02 03:58:10;;;;;;;1.25;0.15;;;;;;;10.01;100.00;101644.56;4940189;28;20035;-91
2024/02/02 04:00:36;;;;;;;0.30;0.17;;;;;;;9.99;100.00;101638.53;4942009;28;20046;-93
2024/02/02 04:03:02;;;;;;;0.60;0.10;;;;;;;10.04;100.00;101643.50;4941975;28;20058;-92
2024/02/02 04:05:28;;;;;;;0.28;0.17;;;;;;;10.05;100.00;101639.88;4955496;28;20032;-83
2024/02/02 04:07:54;;;;;;;1.27;0.10;;;;;;;9.99;100.00;101635.91;4928065;29;20039;-92
2024/02/02 04:10:20;;;;;;;0.17;0.10;;;;;;;10.01;100.00;101641.06;4926109;28;20035;-92
2024/02/02 04:12:46;;;;;;;0.90;0.20;;;;;;;10.00;100.00;101634.13;4946346;28;20053;-92
2024/02/02 04:15:12;;;;;;;2.13;0.10;;;;;;;10.01;100.00;101635.78;4924035;28;20035;-92
2024/02/02 04:17:38;;;;;;;0.00;0.00;;;;;;;10.02;100.00;101632.19;4948680;28;20046;-91
2024/02/02 04:20:06;;;;;;;0.85;0.13;;;;;;;9.98;100.00;101623.66;4939238;29;20039;-84
2024/02/02 04:22:31;;;;;;;0.90;0.20;;;;;;;9.96;100.00;101614.16;4961490;28;20041;-88
2024/02/02 04:24:57;;;;;;;0.35;0.20;;;;;;;9.93;100.00;101613.44;4942804;28;20030;-84
2024/02/02 04:27:23;;;;;;;1.58;0.22;;;;;;;9.92;100.00;101611.72;4956421;28;20493;-83
2024/02/02 04:29:49;;;;;;;1.77;0.35;;;;;;;9.93;100.00;101610.78;4960000;28;20035;-82
2024/02/02 04:32:15;;;;;;;0.25;0.15;;;;;;;9.92;100.00;101606.44;4958372;28;20031;-83
2024/02/02 04:34:40;;;;;;;0.52;0.20;;;;;;;9.97;100.00;101608.75;4932705;28;20046;-83
2024/02/02 04:37:06;;;;;;;0.50;0.15;;;;;;;9.99;100.00;101612.13;4944246;28;20050;-83
2024/02/02 04:39:32;;;;;;;0.35;0.15;;;;;;;9.99;100.00;101606.84;4938548;28;20039;-84
2024/02/02 04:41:57;;;;;;;1.17;0.20;;;;;;;10.02;100.00;101601.34;4946405;28;20559;-83
2024/02/02 04:44:24;;;;;;;0.28;0.10;;;;;;;10.05;100.00;101610.84;4950751;28;20035;-83
2024/02/02 04:46:50;;;;;;;1.45;0.10;;;;;;;10.03;100.00;101597.72;4963618;28;20034;-83
2024/02/02 04:49:15;;;;;;;0.93;0.10;;;;;;;10.04;100.00;101607.38;4950248;28;20045;-85
2024/02/02 04:51:41;;;;;;;0.93;0.10;;;;;;;10.04;100.00;101617.94;4965502;28;20493;-83
2024/02/02 04:54:07;;;;;;;0.93;0.20;;;;;;;10.07;100.00;101610.72;4944267;28;20798;-83
2024/02/02 04:56:33;;;;;;;1.85;0.10;;;;;;;10.05;100.00;101601.13;4953801;28;20038;-85
2024/02/02 04:58:58;;;;;;;0.20;0.17;;;;;;;10.07;100.00;101614.22;4963582;28;20034;-82
2024/02/02 05:01:24;;;;;;;0.40;0.13;;;;;;;10.04;100.00;101612.66;4963410;28;20054;-84
2024/02/02 05:03:50;;;;;;;0.75;0.10;;;;;;;10.02;100.00;101617.19;4946290;28;20057;-83
2024/02/02 05:06:16;;;;;;;1.33;0.17;;;;;;;10.05;100.00;101616.13;4970477;28;20035;-83
2024/02/02 05:08:43;;;;;;;2.55;0.10;;;;;;;10.05;100.00;101616.13;4942916;28;20046;-82
2024/02/02 05:11:11;;;;;;;0.70;0.10;;;;;;;10.05;100.00;101616.13;4970664;28;20054;-84
2024/02/02 05:13:36;;;;;;;1.85;0.20;;;;;;;10.00;100.00;101619.09;4954164;28;20031;-83
2024/02/02 05:16:03;;;;;;;0.52;0.20;;;;;;;10.03;100.00;101620.69;4949093;28;20353;-84
2024/02/02 05:18:28;;;;;;;0.88;0.10;;;;;;;10.00;100.00;101616.44;4973481;28;20104;-86
2024/02/02 05:20:54;;;;;;;2.50;0.30;;;;;;;10.03;100.00;101616.22;4928310;28;20038;-83
2024/02/02 05:23:24;;;;;;;1.35;0.20;;;;;;;10.09;100.00;101619.38;4957221;28;20045;-88
2024/02/02 05:25:50;;;;;;;5.15;0.32;;;;;;;10.13;100.00;101613.75;4961978;28;20384;-83
2024/02/02 05:28:15;;;;;;;0.30;0.10;;;;;;;10.24;100.00;101623.53;4944430;28;20039;-83
2024/02/02 05:30:41;;;;;;;1.50;0.20;;;;;;;10.28;100.00;101627.66;4940078;28;20038;-85
2024/02/02 05:33:07;;;;;;;1.85;0.10;;;;;;;10.32;100.00;101620.31;4926789;28;20045;-85
2024/02/02 05:35:33;;;;;;;0.80;0.10;;;;;;;10.36;100.00;101623.59;4934423;28;20043;-84
2024/02/02 05:37:59;;;;;;;1.35;0.10;;;;;;;10.36;100.00;101623.59;4934565;28;20496;-89
2024/02/02 05:40:25;;;;;;;0.73;0.10;;;;;;;10.37;100.00;101625.28;4922726;28;20050;-84
2024/02/02 05:42:51;;;;;;;0.43;0.10;;;;;;;10.35;100.00;101612.16;4941491;28;20038;-85
2024/02/02 05:45:17;;;;;;;0.70;0.10;;;;;;;10.37;100.00;101612.91;4935582;28;20102;-85
2024/02/02 05:47:42;;;;;;;0.32;0.10;;;;;;;10.37;100.00;101612.06;4940583;28;20089;-84
2024/02/02 05:50:09;;;;;;;0.75;0.03;;;;;;;10.37;100.00;101599.69;4931525;28;20125;-82
2024/02/02 05:52:34;;;;;;;0.68;0.10;;;;;;;10.39;100.00;101603.06;4956983;28;20121;-82
2024/02/02 05:55:01;;;;;;;0.40;0.10;;;;;;;10.38;100.00;101613.75;4958391;28;20511;-82
2024/02/02 05:57:26;;;;;;;0.20;0.10;;;;;;;10.39;100.00;101612.78;4969385;28;20046;-85
2024/02/02 05:59:52;;;;;;;0.30;0.10;;;;;;;10.43;100.00;101615.09;4933223;28;20039;-89
2024/02/02 06:02:18;;;;;;;1.80;0.10;;;;;;;10.43;100.00;101622.19;4925893;28;20054;-83
2024/02/02 06:04:44;;;;;;;2.63;0.30;;;;;;;10.40;100.00;101617.97;4928456;29;20080;-84
2024/02/02 06:07:09;;;;;;;1.60;0.13;;;;;;;10.39;100.00;101613.66;4929930;28;20027;-83
2024/02/02 06:09:35;;;;;;;0.75;0.10;;;;;;;10.38;100.00;101616.41;4923564;28;20050;-83
2024/02/02 06:12:01;;;;;;;0.35;0.10;;;;;;;10.36;100.00;101613.88;4939635;28;20059;-83
2024/02/02 06:14:27;;;;;;;0.55;0.20;;;;;;;10.33;100.00;101607.97;4935713;29;20082;-83
2024/02/02 06:16:53;;;;;;;0.22;0.00;;;;;;;10.33;100.00;101610.59;4945872;28;20405;-83
2024/02/02 06:19:19;;;;;;;1.05;0.10;;;;;;;10.33;100.00;101610.59;4942604;28;20050;-82
2024/02/02 06:21:45;;;;;;;0.82;0.20;;;;;;;10.31;100.00;101602.78;4960411;28;20042;-83
2024/02/02 06:24:10;;;;;;;1.50;0.10;;;;;;;10.29;100.00;101605.56;4918140;28;20549;-85
2024/02/02 06:26:39;;;;;;;0.45;0.10;;;;;;;10.28;100.00;101606.53;4955950;28;20038;-83
2024/02/02 06:29:05;;;;;;;0.45;0.25;;;;;;;10.27;100.00;101609.28;4926423;28;20502;-86
2024/02/02 06:31:30;;;;;;;0.57;0.10;;;;;;;10.28;100.00;101617.09;4936322;28;20113;-83
2024/02/02 06:33:56;;;;;;;0.43;0.10;;;;;;;10.28;100.00;101608.31;4918033;29;20512;-82
2024/02/02 06:36:27;;;;;;;1.70;0.10;;;;;;;10.30;100.00;101615.16;4899075;29;20398;-85
2024/02/02 06:38:55;;;;;;;0.93;0.17;;;;;;;10.37;100.00;101623.47;4941909;29;20031;-82
2024/02/02 06:41:21;;;;;;;0.17;0.10;;;;;;;10.34;100.00;101617.56;4958188;28;20038;-87
2024/02/02 06:43:47;;;;;;;0.98;0.20;;;;;;;10.35;100.00;101606.06;4910773;28;20049;-83
2024/02/02 06:46:13;;;;;;;1.80;0.10;;;;;;;10.39;100.00;101607.50;4949104;28;20098;-88
2024/02/02 06:48:39;;;;;;;2.15;0.20;;;;;;;10.40;100.00;101609.22;4927731;28;20085;-83
2024/02/02 06:51:04;;;;;;;2.13;0.28;;;;;;;10.42;100.00;101617.84;4940700;28;20038;-83
2024/02/02 06:53:32;;;;;;;1.30;0.10;;;;;;;10.42;100.00;101613.41;4918211;28;20066;-82
2024/02/02 06:55:58;;;;;;;2.35;0.20;;;;;;;10.44;100.00;101613.31;4924124;28;20043;-83
2024/02/02 06:58:35;;;;;;;1.17;0.32;;;;;;;10.46;100.00;101614.06;4917879;29;20038;-83
2024/02/02 07:01:02;;;;;;;0.70;0.10;;;;;;;10.42;100.00;101620.50;4937933;29;20379;-82
2024/02/02 07:03:31;;;;;;;0.57;0.10;;;;;;;10.46;100.00;101623.75;4918859;28;20047;-84
2024/02/02 07:05:57;;;;;;;0.35;0.10;;;;;;;10.41;100.00;101617.03;4950335;28;20045;-86
2024/02/02 07:08:23;;;;;;;3.08;0.22;;;;;;;10.44;100.00;101621.22;4928901;29;20035;-83
2024/02/02 07:11:02;;;;;;;5.88;0.35;;;;;;;10.47;100.00;101625.47;4952710;28;20118;-88
2024/02/02 07:13:34;;;;;;;2.03;0.20;;;;;;;10.47;100.00;101626.31;4921276;28;20035;-83
2024/02/02 07:16:00;;;;;;;0.30;0.15;;;;;;;10.46;100.00;101626.41;4933457;28;20512;-83
2024/02/02 07:18:36;;;;;;;1.48;0.22;;;;;;;10.53;100.00;101625.88;4947761;28;20185;-83
2024/02/02 07:21:06;;;;;;;1.80;0.30;;;;;;;10.53;100.00;101625.00;4923858;28;20182;-84
2024/02/02 07:23:35;;;;;;;1.00;0.10;;;;;;;10.51;100.00;101627.78;4955728;28;20085;-82
2024/02/02 07:26:05;;;;;;;0.68;0.10;;;;;;;10.54;100.00;101632.00;4943535;28;20572;-82
2024/02/02 07:28:35;;;;;;;0.88;0.20;;;;;;;10.52;100.00;101618.91;4924089;28;20114;-83
2024/02/02 07:31:02;;;;;;;0.85;0.20;;;;;;;10.53;100.00;101631.16;4942376;28;20097;-82
2024/02/02 07:33:39;;;;;;;0.68;0.10;;;;;;;10.51;100.00;101622.47;4908340;29;20043;-83
2024/02/02 07:36:12;;;;;;;0.70;0.13;;;;;;;10.55;100.00;101615.16;4898549;28;20039;-84
2024/02/02 07:38:49;;;;;;;0.13;0.08;;;;;;;10.58;100.00;101619.38;4911600;28;20073;-83
2024/02/02 07:41:26;;;;;;;0.57;0.22;;;;;;;10.57;100.00;101621.19;4920725;29;20055;-84
2024/02/02 07:44:00;;;;;;;1.75;0.30;;;;;;;10.57;100.00;101615.06;4910125;28;20047;-86
2024/02/02 07:46:26;;;;;;;1.30;0.28;;;;;;;10.54;100.00;101619.59;4904803;28;20027;-83
2024/02/02 07:48:53;;;;;;;1.60;0.55;;;;;;;10.56;100.00;101619.50;4916910;29;20036;-84
2024/02/02 07:51:22;;;;;;;3.30;0.52;;;;;;;10.56;100.00;101623.97;4905392;28;20983;-84
2024/02/02 07:53:49;;;;;;;0.98;0.20;;;;;;;10.59;100.00;101623.72;4945794;28;20393;-86
2024/02/02 07:56:17;;;;;;;0.95;0.10;;;;;;;10.61;100.00;101625.28;4936633;29;20392;-87
2024/02/02 07:58:43;;;;;;;0.93;0.10;;;;;;;10.60;100.00;101617.47;4918728;29;20118;-85
2024/02/02 08:01:11;;;;;;;0.50;0.20;;;;;;;10.63;100.00;101620.72;4914902;28;20035;-87
2024/02/02 08:03:40;;;;;;;2.90;0.10;;;;;;;10.62;100.00;101608.44;4945842;28;20112;-90
2024/02/02 08:06:06;;;;;;;0.70;0.17;;;;;;;10.62;100.00;101618.22;4917258;29;20043;-84
2024/02/02 08:08:33;;;;;;;0.47;0.10;;;;;;;10.66;100.00;101619.66;4922844;28;20094;-86
2024/02/02 08:10:59;;;;;;;2.50;0.20;;;;;;;10.65;100.00;101618.78;4928339;28;20038;-87
2024/02/02 08:13:25;;;;;;;0.45;0.00;;;;;;;10.64;100.00;101622.41;4952795;28;20565;-89
2024/02/02 08:15:51;;;;;;;0.10;0.00;;;;;;;10.66;100.00;101612.56;4902203;28;20134;-84
2024/02/02 08:18:17;;;;;;;1.50;0.00;;;;;;;10.66;100.00;101594.06;4941623;28;20086;-88
2024/02/02 08:20:46;;;;;;;2.08;0.05;;;;;;;10.68;100.00;101620.38;4920341;29;20034;-89
2024/02/02 08:23:12;;;;;;;0.00;0.00;;;;;;;10.70;100.00;101605.25;4935708;29;20493;-87
2024/02/02 08:25:38;;;;;;;0.52;0.17;;;;;;;10.70;100.00;101618.47;4921041;28;20039;-86
2024/02/02 08:28:04;;;;;;;0.15;0.10;;;;;;;10.73;100.00;101612.09;4923534;29;20042;-85
2024/02/02 08:30:31;;;;;;;0.00;0.00;;;;;;;10.72;100.00;101611.25;4937571;28;20035;-85
2024/02/02 08:32:56;;;;;;;0.40;0.40;;;;;;;10.70;100.00;101607.03;4908726;28;20039;-86
2024/02/02 08:35:24;;;;;;;0.30;0.10;;;;;;;10.77;100.00;101610.91;4906922;28;20978;-87
2024/02/02 08:37:55;;;;;;;0.30;0.10;;;;;;;10.81;100.00;101603.59;4911733;28;20098;-85
2024/02/02 08:40:26;;;;;;;0.28;0.08;;;;;;;10.77;100.00;101600.31;4935293;28;20035;-89
2024/02/02 08:42:53;;;;;;;0.08;0.08;;;;;;;10.77;100.00;101605.59;4933683;28;20042;-88
2024/02/02 08:45:57;;;;;;;0.60;0.10;;;;;;;10.86;100.00;101609.38;4941597;29;20047;-84
2024/02/02 08:48:31;;;;;;;0.05;0.00;;;;;;;10.78;100.00;101592.25;4901390;29;20372;-87
2024/02/02 08:50:58;;;;;;;0.35;0.10;;;;;;;10.78;100.00;101596.75;4944033;28;20046;-84
2024/02/02 08:53:24;;;;;;;2.55;0.10;;;;;;;10.81;100.00;101603.59;4936807;28;20027;-89
2024/02/02 08:56:00;;;;;;;0.75;0.10;;;;;;;10.84;100.00;101604.19;4926876;28;20069;-91
2024/02/02 08:58:31;;;;;;;0.32;0.10;;;;;;;10.85;100.00;101594.44;4919826;29;20043;-86
2024/02/02 09:00:59;;;;;;;0.73;0.10;;;;;;;10.86;100.00;101604.91;4908991;29;20043;-86
2024/02/02 09:03:43;;;;;;;0.65;0.10;;;;;;;10.92;100.00;101601.78;4940380;28;20058;-86
2024/02/02 09:06:25;;;;;;;2.65;1.52;;;;;;;10.90;100.00;101597.59;4937034;28;20148;-85
2024/02/02 09:08:52;;;;;;;0.00;0.00;;;;;;;10.85;100.00;101594.44;4931301;28;20035;-84
2024/02/02 09:11:20;;;;;;;0.20;0.13;;;;;;;10.92;100.00;101593.03;4942823;28;20089;-85
2024/02/02 09:13:47;;;;;;;0.63;0.10;;;;;;;10.93;100.00;101597.34;4941217;28;20041;-85
2024/02/02 09:16:18;;;;;;;0.20;0.10;;;;;;;10.95;100.00;101598.09;4936051;28;20039;-87
2024/02/02 09:18:54;;;;;;;1.45;0.00;;;;;;;11.00;100.00;101588.00;4956673;28;20070;-84
2024/02/02 09:21:32;;;;;;;0.17;0.10;;;;;;;11.04;100.00;101592.06;4945122;28;20034;-82
2024/02/02 09:23:58;;;;;;;1.08;0.10;;;;;;;11.02;100.00;101579.94;4931835;28;20097;-86
2024/02/02 09:26:36;;;;;;;0.95;0.30;;;;;;;11.11;100.00;101576.56;4952068;28;20593;-84
2024/02/02 09:29:02;;;;;;;0.10;0.10;;;;;;;11.06;100.00;101581.38;4956156;28;20034;-84
2024/02/02 09:31:34;;;;;;;1.35;0.10;;;;;;;11.03;100.00;101577.16;4936791;28;20126;-85
2024/02/02 09:34:06;;;;;;;0.10;0.10;;;;;;;11.11;100.00;101586.31;4925405;28;20039;-82
2024/02/02 09:36:31;;;;;;;0.10;0.10;;;;;;;11.09;100.00;101582.94;4927757;28;20034;-84
2024/02/02 09:39:06;;;;;;;1.23;0.03;;;;;;;11.18;100.00;101582.19;4940700;28;20035;-85
2024/02/02 09:41:39;;;;;;;0.10;0.00;;;;;;;11.14;100.00;101583.41;4936432;28;20134;-85
2024/02/02 09:44:26;;;;;;;2.10;0.10;;;;;;;11.20;100.00;101584.72;4937030;28;20039;-86
2024/02/02 09:47:24;;;;;;;0.20;0.10;;;;;;;11.22;100.00;101586.31;4926871;28;20034;-83
2024/02/02 09:50:06;;;;;;;0.30;0.20;;;;;;;11.24;100.00;101583.53;4917968;28;20078;-83
2024/02/02 09:53:04;;;;;;;0.52;0.20;;;;;;;11.29;100.00;101571.63;4930869;28;20141;-85
2024/02/02 09:55:43;;;;;;;0.50;0.10;;;;;;;11.33;100.00;101580.16;4939453;28;20043;-84
2024/02/02 09:58:12;;;;;;;0.32;0.10;;;;;;;11.38;100.00;101578.00;4950566;28;20043;-84
2024/02/02 10:01:05;;;;;;;0.40;0.20;;;;;;;11.46;100.00;101573.91;4954208;28;20049;-85
2024/02/02 10:04:02;;;;;;;0.77;0.10;;;;;;;11.47;100.00;101572.94;4932501;28;20047;-86
2024/02/02 10:07:03;;;;;;;;;;;;;;;11.44;100.00;101581.97;4967615;28;20038;-84
2024/02/02 10:09:49;;;;;;;0.75;0.20;;;;;;;11.50;100.00;101588.56;4912670;29;19923;-85
2024/02/02 10:12:30;;;;;;;0.30;0.10;;;;;;;11.45;100.00;101586.28;4946582;28;20408;-85
2024/02/02 10:15:23;;;;;;;1.35;0.30;;;;;;;11.51;100.00;101591.13;4938076;28;20042;-85
2024/02/02 10:18:13;;;;;;;0.17;0.17;;;;;;;11.55;100.00;101583.75;4961034;28;20043;-83
2024/02/02 10:21:01;;;;;;;0.10;0.10;;;;;;;11.57;100.00;101578.34;4941403;28;20133;-84
2024/02/02 10:23:39;;;;;;;0.35;0.15;;;;;;;11.60;100.00;101580.75;4943550;28;20476;-86
2024/02/02 10:26:38;;;;;;;0.00;0.00;;;;;;;11.66;100.00;101577.59;4940849;28;20038;-84
2024/02/02 10:29:22;;;;;;;0.45;0.13;;;;;;;11.71;100.00;101586.03;4929636;28;21812;-83
2024/02/02 10:32:09;;;;;;;14.80;1.05;;;;;;;11.76;100.00;101590.94;4959586;28;20432;-86
2024/02/02 10:34:47;;;;;;;0.20;0.10;;;;;;;11.79;100.00;101582.75;4937336;28;20082;-84
2024/02/02 10:37:39;;;;;;;0.35;0.10;;;;;;;11.83;100.00;101588.66;4957435;28;20034;-86
2024/02/02 10:40:09;;;;;;;0.38;0.00;;;;;;;11.80;100.00;101587.09;4966837;28;20079;-84
2024/02/02 10:42:44;;;;;;;0.80;0.10;;;;;;;11.81;100.00;101577.31;4941073;28;20096;-83
2024/02/02 10:45:15;;;;;;;0.08;0.08;;;;;;;11.75;100.00;101583.97;4925291;28;20400;-83
2024/02/02 10:47:47;;;;;;;0.47;0.47;;;;;;;11.84;100.00;101587.66;4941982;28;20054;-84
2024/02/02 10:50:16;;;;;;;1.75;0.20;;;;;;;11.83;100.00;101584.19;4954070;28;20053;-86
2024/02/02 10:52:50;;;;;;;2.35;0.20;;;;;;;11.84;100.00;101574.44;4927288;28;20042;-81
2024/02/02 10:55:35;;;;;;;0.50;0.08;;;;;;;11.79;100.00;101580.09;4955527;28;20045;-81
2024/02/02 10:58:23;;;;;;;0.30;0.10;;;;;;;11.86;100.00;101580.44;4954118;28;20145;-86
2024/02/02 11:01:23;;;;;;;0.20;0.10;;;;;;;11.87;100.00;101582.13;4916250;28;20759;-83
2024/02/02 11:04:02;;;;;;;0.10;0.10;;;;;;;11.89;100.00;101588.16;4955176;28;20050;-83
2024/02/02 11:06:34;;;;;;;0.20;0.10;;;;;;;11.91;100.00;101591.53;4920434;28;20571;-85
2024/02/02 11:09:18;;;;;;;0.65;0.10;;;;;;;11.91;100.00;101594.19;4956953;28;20118;-85
2024/02/02 11:11:52;;;;;;;0.10;0.00;;;;;;;11.93;100.00;101592.22;4950224;28;20504;-85
2024/02/02 11:14:48;;;;;;;0.55;0.00;;;;;;;11.94;100.00;101601.88;4938713;28;20035;-84
2024/02/02 11:18:06;;;;;;;0.20;0.00;;;;;;;11.98;100.00;101591.84;4922804;28;20034;-84
2024/02/02 11:20:57;;;;;;;0.20;0.10;;;;;;;12.00;100.00;101592.56;4883906;28;20097;-85
2024/02/02 11:23:54;;;;;;;0.00;0.00;;;;;;;12.00;100.00;101589.91;4972817;28;20122;-84
2024/02/02 11:26:31;;;;;;;0.75;0.00;;;;;;;12.02;100.00;101588.00;4956283;28;20038;-86
2024/02/02 11:29:09;;;;;;;0.32;0.00;;;;;;;12.01;100.00;101595.09;4920437;28;20158;-85
2024/02/02 11:32:02;;;;;;;0.90;0.10;;;;;;;12.00;100.00;101600.50;4941065;28;20046;-84
2024/02/02 11:34:38;;;;;;;0.10;0.10;;;;;;;11.97;100.00;101604.28;4958695;28;20049;-85
2024/02/02 11:37:22;;;;;;;1.00;0.20;;;;;;;11.99;100.00;101604.97;4954176;28;20026;-94
2024/02/02 11:39:53;;;;;;;0.20;0.08;;;;;;;12.04;100.00;101596.63;4946040;28;20039;-93
2024/02/02 11:42:21;;;;;;;0.05;0.03;;;;;;;11.95;100.00;101600.91;4930193;28;20110;-93